createdAt,value
2022-12-31T00:00:38.419Z,11.36
2022-12-31T00:03:07.021Z,11.45
2022-12-31T00:05:37.322Z,11.36
2022-12-31T00:08:05.246Z,11.33
2022-12-31T00:10:34.176Z,11.37
2022-12-31T00:13:02.011Z,11.39
2022-12-31T00:15:30.007Z,11.55
2022-12-31T00:17:59.145Z,11.60
2022-12-31T00:20:26.984Z,11.34
2022-12-31T00:22:55.004Z,11.28
2022-12-31T00:25:23.061Z,11.33
2022-12-31T00:27:50.912Z,11.26
2022-12-31T00:30:18.871Z,11.37
2022-12-31T00:32:46.762Z,11.28
2022-12-31T00:35:15.885Z,11.39
2022-12-31T00:37:43.580Z,11.30
2022-12-31T00:40:12.468Z,11.31
2022-12-31T00:42:40.371Z,11.37
2022-12-31T00:45:09.306Z,11.35
2022-12-31T00:47:37.221Z,11.42
2022-12-31T00:50:05.545Z,11.61
2022-12-31T00:52:34.703Z,11.70
2022-12-31T00:55:02.641Z,11.63
2022-12-31T00:57:30.308Z,11.55
2022-12-31T00:59:58.091Z,11.58
2022-12-31T01:02:26.066Z,11.62
2022-12-31T01:04:54.100Z,11.70
2022-12-31T01:07:21.870Z,11.84
2022-12-31T01:09:51.004Z,11.98
2022-12-31T01:12:18.848Z,11.89
2022-12-31T01:14:46.638Z,12.09
2022-12-31T01:17:14.468Z,11.96
2022-12-31T01:19:42.320Z,11.93
2022-12-31T01:22:10.127Z,11.94
2022-12-31T01:24:38.003Z,11.75
2022-12-31T01:27:07.084Z,11.86
2022-12-31T01:29:34.954Z,11.92
2022-12-31T01:32:02.768Z,12.05
2022-12-31T01:34:30.516Z,12.07
2022-12-31T01:36:58.281Z,11.94
2022-12-31T01:39:26.241Z,11.96
2022-12-31T01:41:54.052Z,11.82
2022-12-31T01:45:01.435Z,11.89
2022-12-31T01:47:37.692Z,11.79
2022-12-31T01:50:11.393Z,11.93
2022-12-31T01:52:42.673Z,11.91
2022-12-31T01:55:17.445Z,11.88
2022-12-31T01:57:46.927Z,11.79
2022-12-31T02:00:17.536Z,11.89
2022-12-31T02:02:47.610Z,11.75
2022-12-31T02:05:20.952Z,11.77
2022-12-31T02:07:49.668Z,11.95
2022-12-31T02:10:18.355Z,11.87
2022-12-31T02:12:46.823Z,11.94
2022-12-31T02:15:14.719Z,11.88
2022-12-31T02:17:53.314Z,11.89
2022-12-31T02:20:50.007Z,11.93
2022-12-31T02:23:45.425Z,11.86
2022-12-31T02:26:38.333Z,12.00
2022-12-31T02:29:30.384Z,11.95
2022-12-31T02:32:03.823Z,12.17
2022-12-31T02:34:35.545Z,12.21
2022-12-31T02:37:07.934Z,12.31
2022-12-31T02:39:37.539Z,12.17
2022-12-31T02:42:05.501Z,12.10
2022-12-31T02:44:34.762Z,12.12
2022-12-31T02:47:21.670Z,12.25
2022-12-31T02:50:03.798Z,12.04
2022-12-31T02:52:42.404Z,11.86
2022-12-31T02:55:17.716Z,11.93
2022-12-31T02:57:54.218Z,12.03
2022-12-31T03:00:40.064Z,11.99
2022-12-31T03:03:10.202Z,11.85
2022-12-31T03:05:42.216Z,11.87
2022-12-31T03:08:10.300Z,11.82
2022-12-31T03:10:38.398Z,11.79
2022-12-31T03:13:05.230Z,11.85
2022-12-31T03:15:35.328Z,11.86
2022-12-31T03:18:05.199Z,11.86
2022-12-31T03:20:54.325Z,11.67
2022-12-31T03:23:26.492Z,11.67
2022-12-31T03:25:54.928Z,11.80
2022-12-31T03:28:25.273Z,11.76
2022-12-31T03:30:56.010Z,11.71
2022-12-31T03:33:24.440Z,11.78
2022-12-31T03:35:54.087Z,11.72
2022-12-31T03:38:21.960Z,11.70
2022-12-31T03:40:51.979Z,11.67
2022-12-31T03:43:21.118Z,11.58
2022-12-31T03:45:51.611Z,11.59
2022-12-31T03:48:20.259Z,11.65
2022-12-31T03:50:48.151Z,11.58
2022-12-31T03:53:17.723Z,11.53
2022-12-31T03:55:45.798Z,11.56
2022-12-31T03:58:13.954Z,11.57
2022-12-31T04:00:41.965Z,11.70
2022-12-31T04:03:10.158Z,11.68
2022-12-31T04:05:38.322Z,11.64
2022-12-31T04:08:06.391Z,11.59
2022-12-31T04:10:36.003Z,11.68
2022-12-31T04:13:04.688Z,11.62
2022-12-31T04:15:33.168Z,11.74
2022-12-31T04:18:01.029Z,11.68
2022-12-31T04:20:28.904Z,11.76
2022-12-31T04:22:56.727Z,11.69
2022-12-31T04:25:24.534Z,11.74
2022-12-31T04:27:53.800Z,11.84
2022-12-31T04:30:21.581Z,11.80
2022-12-31T04:32:49.461Z,11.86
2022-12-31T04:35:17.478Z,11.80
2022-12-31T04:37:45.477Z,11.85
2022-12-31T04:40:13.811Z,11.86
2022-12-31T04:42:43.069Z,11.89
2022-12-31T04:45:12.967Z,11.89
2022-12-31T04:47:40.895Z,11.89
2022-12-31T04:50:10.623Z,11.84
2022-12-31T04:52:42.639Z,11.88
2022-12-31T04:55:11.834Z,12.05
2022-12-31T04:57:40.027Z,12.07
2022-12-31T05:00:09.380Z,12.15
2022-12-31T05:02:38.991Z,12.17
2022-12-31T05:05:07.610Z,12.21
2022-12-31T05:07:35.611Z,12.35
2022-12-31T05:10:03.490Z,12.19
2022-12-31T05:12:31.504Z,12.26
2022-12-31T05:14:59.402Z,12.33
2022-12-31T05:17:27.348Z,12.40
2022-12-31T05:19:56.561Z,12.35
2022-12-31T05:22:30.457Z,12.39
2022-12-31T05:24:59.257Z,12.51
2022-12-31T05:27:28.059Z,12.35
2022-12-31T05:29:55.998Z,12.42
2022-12-31T05:32:24.069Z,12.37
2022-12-31T05:34:51.971Z,12.39
2022-12-31T05:37:21.547Z,12.46
2022-12-31T05:39:49.513Z,12.34
2022-12-31T05:42:17.586Z,12.39
2022-12-31T05:44:45.750Z,12.48
2022-12-31T05:47:13.861Z,12.31
2022-12-31T05:49:41.914Z,12.29
2022-12-31T05:52:09.987Z,12.21
2022-12-31T05:54:39.603Z,12.19
2022-12-31T05:57:08.378Z,12.04
2022-12-31T05:59:36.552Z,12.04
2022-12-31T06:02:05.156Z,12.04
2022-12-31T06:04:34.050Z,12.10
2022-12-31T06:07:02.785Z,12.17
2022-12-31T06:09:30.967Z,12.22
2022-12-31T06:12:00.508Z,12.25
2022-12-31T06:14:28.490Z,12.36
2022-12-31T06:16:56.754Z,12.53
2022-12-31T06:19:24.990Z,12.49
2022-12-31T06:21:53.196Z,12.51
2022-12-31T06:24:21.598Z,12.53
2022-12-31T06:26:50.018Z,12.58
2022-12-31T06:29:19.522Z,12.46
2022-12-31T06:31:48.149Z,12.48
2022-12-31T06:34:16.619Z,12.44
2022-12-31T06:36:44.743Z,12.06
2022-12-31T06:39:12.778Z,12.14
2022-12-31T06:41:43.149Z,12.35
2022-12-31T06:44:11.384Z,12.48
2022-12-31T06:46:41.063Z,12.35
2022-12-31T06:49:09.252Z,12.19
2022-12-31T06:51:37.293Z,12.22
2022-12-31T06:54:05.415Z,12.18
2022-12-31T06:56:35.068Z,12.13
2022-12-31T06:59:04.473Z,12.26
2022-12-31T07:01:52.476Z,12.35
2022-12-31T07:04:38.452Z,12.14
2022-12-31T07:07:15.329Z,12.18
2022-12-31T07:09:53.035Z,12.15
2022-12-31T07:12:33.399Z,12.07
2022-12-31T07:15:07.828Z,12.00
2022-12-31T07:17:44.705Z,12.03
2022-12-31T07:20:15.409Z,11.95
2022-12-31T07:22:43.901Z,11.91
2022-12-31T07:25:15.665Z,11.88
2022-12-31T07:28:06.261Z,12.16
2022-12-31T07:30:44.175Z,12.20
2022-12-31T07:33:40.285Z,11.82
2022-12-31T07:36:21.975Z,12.06
2022-12-31T07:38:55.181Z,11.94
2022-12-31T07:41:41.163Z,12.21
2022-12-31T07:44:35.453Z,12.19
2022-12-31T07:47:07.016Z,11.94
2022-12-31T07:49:43.673Z,12.30
2022-12-31T07:52:12.380Z,12.42
2022-12-31T07:54:40.530Z,12.50
2022-12-31T07:57:08.754Z,12.22
2022-12-31T07:59:50.252Z,12.37
2022-12-31T08:02:33.968Z,12.40
2022-12-31T08:05:16.764Z,12.29
2022-12-31T08:07:53.221Z,12.50
2022-12-31T08:10:30.150Z,12.50
2022-12-31T08:13:03.838Z,12.47
2022-12-31T08:15:32.437Z,12.42
2022-12-31T08:18:00.915Z,12.42
2022-12-31T08:20:33.861Z,12.42
2022-12-31T08:23:16.388Z,12.50
2022-12-31T08:26:06.002Z,12.47
2022-12-31T08:28:49.175Z,12.49
2022-12-31T08:31:21.431Z,12.27
2022-12-31T08:33:59.469Z,12.27
2022-12-31T08:36:43.222Z,12.31
2022-12-31T08:39:24.119Z,12.41
2022-12-31T08:41:55.437Z,12.69
2022-12-31T08:44:34.042Z,12.72
2022-12-31T08:47:14.625Z,12.85
2022-12-31T08:49:43.770Z,12.93
2022-12-31T08:52:21.200Z,12.73
2022-12-31T08:54:49.737Z,12.88
2022-12-31T08:57:26.146Z,12.90
2022-12-31T09:00:04.200Z,12.98
2022-12-31T09:02:58.011Z,12.83
2022-12-31T09:05:32.536Z,13.03
2022-12-31T09:08:10.841Z,12.94
2022-12-31T09:10:45.150Z,12.98
2022-12-31T09:13:20.217Z,12.92
2022-12-31T09:15:53.814Z,12.95
2022-12-31T09:18:22.266Z,12.98
2022-12-31T09:20:50.472Z,13.04
2022-12-31T09:23:20.299Z,13.11
2022-12-31T09:25:58.916Z,13.12
2022-12-31T09:28:37.931Z,13.27
2022-12-31T09:31:12.465Z,13.15
2022-12-31T09:33:48.622Z,13.23
2022-12-31T09:36:23.375Z,13.23
2022-12-31T09:39:01.909Z,13.34
2022-12-31T09:41:56.657Z,13.21
2022-12-31T09:45:00.668Z,13.42
2022-12-31T09:48:04.687Z,13.29
2022-12-31T09:50:53.778Z,13.37
2022-12-31T09:53:43.266Z,13.62
2022-12-31T09:56:21.712Z,13.64
2022-12-31T09:59:06.748Z,13.84
2022-12-31T10:01:47.306Z,13.99
2022-12-31T10:04:46.490Z,14.23
2022-12-31T10:07:52.948Z,14.51
2022-12-31T10:10:28.736Z,14.70
2022-12-31T10:13:47.695Z,14.82
2022-12-31T10:16:58.136Z,14.97
2022-12-31T10:20:29.393Z,15.08
2022-12-31T10:27:19.637Z,15.43
2022-12-31T10:30:08.103Z,15.58
2022-12-31T10:33:00.911Z,15.71
2022-12-31T10:35:48.413Z,15.74
2022-12-31T10:38:28.535Z,15.76
2022-12-31T10:41:39.666Z,15.78
2022-12-31T10:44:40.442Z,15.82
2022-12-31T10:47:59.658Z,15.95
2022-12-31T10:50:49.053Z,16.18
2022-12-31T10:53:57.634Z,16.21
2022-12-31T10:57:13.232Z,16.26
2022-12-31T11:00:19.660Z,16.36
2022-12-31T11:03:30.095Z,16.33
2022-12-31T11:06:27.585Z,16.39
2022-12-31T11:09:32.699Z,16.44
2022-12-31T11:12:12.224Z,16.57
2022-12-31T11:14:58.451Z,16.37
2022-12-31T11:17:50.308Z,16.57
2022-12-31T11:20:50.975Z,16.63
2022-12-31T11:24:13.381Z,16.58
2022-12-31T11:30:56.572Z,16.48
2022-12-31T11:40:56.382Z,14.60
2022-12-31T11:44:02.726Z,14.71
2022-12-31T11:48:27.942Z,14.83
2022-12-31T11:58:17.375Z,14.99
2022-12-31T12:00:56.532Z,14.93
2022-12-31T12:03:26.477Z,14.85
2022-12-31T12:05:58.170Z,14.89
2022-12-31T12:08:29.549Z,14.80
2022-12-31T12:11:08.239Z,14.93
2022-12-31T12:13:38.380Z,15.02
2022-12-31T12:16:09.854Z,15.08
2022-12-31T12:18:53.069Z,15.24
2022-12-31T12:21:23.974Z,15.41
2022-12-31T12:23:57.386Z,15.16
2022-12-31T12:26:49.553Z,15.51
2022-12-31T12:29:22.519Z,15.64
2022-12-31T12:31:59.387Z,15.85
2022-12-31T12:34:31.394Z,15.89
2022-12-31T12:37:00.993Z,15.94
2022-12-31T12:39:32.836Z,16.16
2022-12-31T12:42:04.094Z,16.21
2022-12-31T12:44:36.162Z,16.28
2022-12-31T12:47:20.286Z,16.33
2022-12-31T12:50:04.060Z,16.53
2022-12-31T12:53:09.302Z,16.40
2022-12-31T12:55:50.516Z,16.13
2022-12-31T12:58:44.965Z,16.23
2022-12-31T13:01:34.623Z,16.16
2022-12-31T13:04:51.033Z,16.29
2022-12-31T13:07:40.171Z,16.26
2022-12-31T13:10:46.731Z,16.21
2022-12-31T13:13:30.578Z,16.26
2022-12-31T13:16:08.885Z,16.24
2022-12-31T13:19:01.754Z,16.38
2022-12-31T13:21:56.142Z,16.42
2022-12-31T13:24:58.508Z,16.34
2022-12-31T13:27:46.038Z,16.34
2022-12-31T13:30:22.644Z,16.32
2022-12-31T13:33:03.896Z,16.46
2022-12-31T13:35:53.413Z,16.56
2022-12-31T13:38:31.454Z,16.58
2022-12-31T13:41:18.699Z,16.70
2022-12-31T13:43:57.882Z,16.69
2022-12-31T13:46:43.651Z,16.66
2022-12-31T13:49:23.686Z,16.61
2022-12-31T13:52:01.003Z,16.67
2022-12-31T13:54:39.058Z,16.65
2022-12-31T13:57:26.243Z,16.73
2022-12-31T14:00:05.950Z,16.70
2022-12-31T14:02:51.823Z,16.66
2022-12-31T14:05:32.218Z,16.70
2022-12-31T14:08:06.618Z,16.72
2022-12-31T14:10:56.513Z,16.68
2022-12-31T14:13:42.822Z,16.75
2022-12-31T14:16:36.364Z,16.64
2022-12-31T14:34:51.855Z,16.77
2022-12-31T14:37:55.816Z,16.74
2022-12-31T14:40:59.357Z,16.75
2022-12-31T14:47:08.392Z,16.83
2022-12-31T14:53:18.344Z,16.77
2022-12-31T14:56:19.228Z,16.84
2022-12-31T15:02:06.223Z,16.84
2022-12-31T15:04:45.105Z,16.66
2022-12-31T15:07:23.716Z,16.60
2022-12-31T15:10:04.772Z,16.64
2022-12-31T15:12:53.440Z,16.47
2022-12-31T15:15:33.662Z,16.54
2022-12-31T15:18:19.348Z,16.57
2022-12-31T15:21:11.278Z,16.59
2022-12-31T15:23:44.687Z,16.60
2022-12-31T15:26:24.355Z,16.53
2022-12-31T15:29:02.791Z,16.65
2022-12-31T15:31:33.739Z,16.67
2022-12-31T15:34:06.357Z,16.60
2022-12-31T15:36:38.305Z,16.83
2022-12-31T15:39:23.337Z,16.76
2022-12-31T15:42:36.308Z,16.68
2022-12-31T15:44:51.643Z,16.65
2022-12-31T15:47:29.360Z,16.66
2022-12-31T15:50:04.346Z,16.63
2022-12-31T15:52:40.965Z,16.70
2022-12-31T15:55:15.822Z,16.63
2022-12-31T15:57:46.220Z,16.51
2022-12-31T16:00:19.800Z,16.58
2022-12-31T16:02:50.085Z,16.61
2022-12-31T16:05:23.038Z,16.69
2022-12-31T16:07:58.277Z,16.63
2022-12-31T16:10:36.084Z,16.62
2022-12-31T16:13:06.755Z,16.64
2022-12-31T16:15:37.066Z,16.57
2022-12-31T16:18:08.279Z,16.58
2022-12-31T16:20:46.438Z,16.55
2022-12-31T16:23:23.341Z,16.56
2022-12-31T16:25:54.849Z,16.52
2022-12-31T16:28:32.078Z,16.58
2022-12-31T16:31:09.655Z,16.54
2022-12-31T16:33:49.108Z,16.47
2022-12-31T16:36:23.248Z,16.46
2022-12-31T16:38:52.103Z,16.48
2022-12-31T16:41:22.137Z,16.54
2022-12-31T16:43:51.665Z,16.43
2022-12-31T16:46:26.442Z,16.49
2022-12-31T17:29:50.889Z,16.42
2022-12-31T17:32:31.651Z,16.43
2022-12-31T17:35:00.567Z,16.44
2022-12-31T17:37:31.666Z,16.45
2022-12-31T17:40:49.947Z,16.39
2022-12-31T17:42:52.587Z,16.43
2022-12-31T17:45:23.377Z,16.37
2022-12-31T17:47:54.086Z,16.33
2022-12-31T17:50:26.810Z,16.35
2022-12-31T17:52:59.908Z,16.41
2022-12-31T17:55:29.810Z,16.37
2022-12-31T17:58:04.706Z,16.41
2022-12-31T18:00:34.209Z,16.46
2022-12-31T18:03:02.988Z,16.45
2022-12-31T18:05:31.323Z,16.41
2022-12-31T18:08:12.406Z,16.44
2022-12-31T18:10:49.731Z,16.17
2022-12-31T18:13:34.739Z,16.19
2022-12-31T18:16:05.603Z,16.08
2022-12-31T18:18:40.644Z,16.15
2022-12-31T18:21:17.339Z,16.05
2022-12-31T18:26:33.236Z,16.15
2022-12-31T18:29:15.740Z,16.18
2022-12-31T18:31:47.421Z,16.21
2022-12-31T18:34:18.088Z,16.10
2022-12-31T18:36:48.172Z,16.12
2022-12-31T18:39:16.526Z,16.21
2022-12-31T18:41:47.051Z,16.19
2022-12-31T18:44:17.629Z,16.28
2022-12-31T18:46:46.199Z,16.31
2022-12-31T18:49:15.638Z,16.31
2022-12-31T18:51:43.993Z,16.24
2022-12-31T18:54:15.080Z,16.28
2022-12-31T18:56:49.290Z,16.28
2022-12-31T18:59:22.029Z,16.28
2022-12-31T19:01:50.734Z,16.24
2022-12-31T19:04:27.004Z,16.27
2022-12-31T19:06:58.885Z,16.36
2022-12-31T19:12:16.207Z,16.35
2022-12-31T19:14:45.890Z,16.28
2022-12-31T19:17:14.379Z,16.26
2022-12-31T19:19:42.421Z,16.10
2022-12-31T19:22:14.899Z,16.13
2022-12-31T19:24:43.112Z,16.07
2022-12-31T19:27:11.843Z,16.11
2022-12-31T19:29:40.452Z,16.06
2022-12-31T19:32:12.472Z,16.10
2022-12-31T19:34:42.214Z,16.15
2022-12-31T19:37:16.188Z,16.10
2022-12-31T19:39:46.341Z,16.13
2022-12-31T19:42:18.737Z,16.08
2022-12-31T19:44:48.772Z,16.07
2022-12-31T19:47:31.895Z,15.99
2022-12-31T19:50:03.009Z,16.00
2022-12-31T19:52:31.620Z,15.97
2022-12-31T19:55:00.035Z,16.03
2022-12-31T19:57:28.198Z,16.06
2022-12-31T19:59:57.574Z,16.05
2022-12-31T20:02:31.993Z,16.22
2022-12-31T20:05:03.498Z,16.16
2022-12-31T20:07:34.671Z,16.33
2022-12-31T20:10:03.951Z,16.28
2022-12-31T20:12:37.849Z,16.28
2022-12-31T20:15:12.133Z,16.13
2022-12-31T20:17:45.430Z,16.16
2022-12-31T20:20:17.996Z,16.23
2022-12-31T20:22:48.525Z,16.20
2022-12-31T20:25:17.368Z,16.18
2022-12-31T20:27:47.643Z,16.07
2022-12-31T20:30:22.319Z,15.93
2022-12-31T20:32:56.299Z,15.87
2022-12-31T20:35:26.138Z,15.84
2022-12-31T20:37:59.590Z,15.83
2022-12-31T20:40:37.267Z,15.79
2022-12-31T20:43:14.085Z,15.90
2022-12-31T20:45:48.728Z,15.77
2022-12-31T20:48:24.019Z,15.73
2022-12-31T20:51:10.687Z,15.74
2022-12-31T20:56:45.224Z,15.70
2022-12-31T20:59:22.192Z,15.76
2022-12-31T21:02:20.591Z,15.62
2022-12-31T21:04:42.201Z,15.63
2022-12-31T21:07:14.144Z,15.51
2022-12-31T21:09:45.490Z,15.56
2022-12-31T21:12:32.973Z,15.58
2022-12-31T21:15:04.620Z,15.52
2022-12-31T21:17:34.354Z,15.53
2022-12-31T21:20:05.561Z,15.46
2022-12-31T21:22:36.326Z,15.47
2022-12-31T21:25:08.104Z,15.54
2022-12-31T21:27:38.789Z,15.62
2022-12-31T21:30:19.349Z,15.68
2022-12-31T21:32:50.555Z,15.61
2022-12-31T21:38:09.435Z,15.97
2022-12-31T21:40:38.027Z,16.12
2022-12-31T21:43:16.706Z,16.06
2022-12-31T21:45:45.458Z,16.17
2022-12-31T21:48:21.344Z,16.16
2022-12-31T21:50:52.766Z,16.19
2022-12-31T21:53:30.432Z,16.34
2022-12-31T21:56:09.540Z,16.26
2022-12-31T21:58:38.633Z,16.40
2022-12-31T22:01:24.692Z,16.38
2022-12-31T22:03:53.354Z,16.48
2022-12-31T22:06:24.146Z,16.37
2022-12-31T22:08:54.197Z,16.45
2022-12-31T22:11:24.295Z,16.50
2022-12-31T22:13:53.851Z,16.46
2022-12-31T22:16:23.109Z,16.63
2022-12-31T22:18:51.900Z,16.58
2022-12-31T22:21:23.771Z,16.56
2022-12-31T22:23:54.515Z,16.64
2022-12-31T22:26:24.827Z,16.54
2022-12-31T22:28:53.163Z,16.53
2022-12-31T22:31:24.725Z,16.55
2022-12-31T22:33:53.890Z,16.52
2022-12-31T22:36:25.100Z,16.50
2022-12-31T22:38:57.394Z,16.59
2022-12-31T22:41:28.057Z,16.55
2022-12-31T22:44:03.184Z,16.58
2022-12-31T22:46:33.660Z,16.62
2022-12-31T22:49:04.899Z,16.58
2022-12-31T22:51:55.696Z,16.58
2022-12-31T22:54:25.489Z,16.61
2022-12-31T22:56:54.715Z,16.53
2022-12-31T22:59:24.976Z,16.55
2022-12-31T23:01:54.094Z,16.53
2022-12-31T23:04:27.056Z,16.60
2022-12-31T23:07:04.026Z,16.63
2022-12-31T23:09:52.107Z,16.69
2022-12-31T23:12:23.768Z,16.64
2022-12-31T23:15:13.486Z,16.70
2022-12-31T23:17:59.756Z,16.69
2022-12-31T23:20:46.246Z,16.66
2022-12-31T23:23:24.291Z,16.60
2022-12-31T23:25:55.845Z,16.54
2022-12-31T23:28:28.316Z,16.48
2022-12-31T23:30:57.421Z,16.56
2022-12-31T23:33:31.068Z,16.57
2022-12-31T23:36:07.460Z,16.53
2022-12-31T23:38:38.731Z,16.54
2022-12-31T23:41:14.600Z,16.58
2022-12-31T23:43:44.120Z,16.64
2022-12-31T23:46:16.519Z,16.68
2022-12-31T23:48:49.276Z,16.64
2022-12-31T23:51:21.053Z,16.66
2022-12-31T23:53:56.803Z,16.63
2022-12-31T23:56:28.152Z,16.71
2022-12-31T23:58:57.729Z,16.66
